Time;durP1;ratioP1;P1;durP2;ratioP2;P2;SDS_P1;SDS_P2;PMS_P1;PMS_P2;Temp;Humidity;BMP_temperature;BMP_pressure;BME280_temperature;BME280_humidity;BME280_pressure;Samples;Min_cycle;Max_cycle;Signal;HPM_P1;HPM_P2
2024/01/25 00:00:01;;;;;;;17.10;4.65;;;10.00;97.20;;;;;;4926184;29;20127;-91
2024/01/25 00:02:27;;;;;;;13.88;5.18;;;10.00;97.30;;;;;;4926334;29;20032;-90
2024/01/25 00:04:54;;;;;;;13.75;3.78;;;10.00;97.40;;;;;;4940052;29;20028;-91
2024/01/25 00:07:19;;;;;;;14.02;4.18;;;10.10;97.80;;;;;;4946204;29;20130;-92
2024/01/25 00:09:52;;;;;;;9.90;5.93;;;10.00;97.80;;;;;;4945875;29;20121;-91
2024/01/25 00:12:18;;;;;;;7.80;5.40;;;10.10;98.00;;;;;;4927720;29;20030;-91
2024/01/25 00:14:45;;;;;;;14.00;3.63;;;10.00;98.10;;;;;;4941215;29;20392;-92
2024/01/25 00:17:13;;;;;;;15.13;4.32;;;10.00;98.40;;;;;;4930959;29;20088;-91
2024/01/25 00:19:41;;;;;;;9.88;5.20;;;10.00;98.60;;;;;;4926148;29;20116;-91
2024/01/25 00:22:13;;;;;;;13.07;4.57;;;10.00;98.80;;;;;;4929952;29;20033;-91
2024/01/25 00:24:39;;;;;;;11.85;4.15;;;10.00;98.80;;;;;;4929370;29;20040;-92
2024/01/25 00:27:06;;;;;;;12.27;4.25;;;10.00;99.20;;;;;;4927561;29;20029;-91
2024/01/25 00:29:35;;;;;;;17.58;5.65;;;10.00;99.20;;;;;;4925760;29;20095;-92
2024/01/25 00:32:06;;;;;;;11.73;5.40;;;10.00;99.30;;;;;;4926692;29;20176;-91
2024/01/25 00:34:36;;;;;;;13.68;4.95;;;9.90;99.70;;;;;;4935055;29;20028;-93
2024/01/25 00:37:02;;;;;;;13.27;4.80;;;9.90;99.60;;;;;;4926136;29;20028;-91
2024/01/25 00:39:31;;;;;;;14.68;5.35;;;9.90;99.90;;;;;;4933210;29;20040;-91
2024/01/25 00:42:05;;;;;;;12.65;5.78;;;9.90;99.90;;;;;;4925605;29;20032;-90
2024/01/25 00:44:32;;;;;;;10.20;3.55;;;9.90;99.90;;;;;;4924408;29;20052;-93
2024/01/25 00:47:02;;;;;;;19.85;4.40;;;9.90;99.90;;;;;;4923996;29;20092;-92
2024/01/25 00:49:28;;;;;;;12.52;3.42;;;9.90;99.90;;;;;;4938696;29;20126;-91
2024/01/25 00:52:02;;;;;;;11.63;4.88;;;9.90;99.90;;;;;;4924896;29;20046;-92
2024/01/25 00:54:28;;;;;;;;;;;9.90;99.90;;;;;;4924874;29;20233;-92
2024/01/25 00:56:57;;;;;;;15.43;4.63;;;9.90;99.90;;;;;;4924454;29;19907;-94
2024/01/25 00:59:25;;;;;;;12.52;4.28;;;9.90;99.90;;;;;;4923352;29;20047;-90
2024/01/25 01:01:59;;;;;;;13.18;3.67;;;9.90;99.90;;;;;;4924552;29;20031;-92
2024/01/25 01:04:26;;;;;;;11.45;4.13;;;9.90;99.90;;;;;;4933732;29;20116;-90
2024/01/25 01:06:52;;;;;;;17.92;4.55;;;9.90;99.90;;;;;;4945021;29;20032;-91
2024/01/25 01:09:21;;;;;;;19.50;4.97;;;9.90;99.90;;;;;;4936505;29;20111;-90
2024/01/25 01:11:51;;;;;;;11.60;4.85;;;9.90;99.90;;;;;;4929101;29;20111;-93
2024/01/25 01:14:24;;;;;;;11.48;3.97;;;10.00;99.90;;;;;;4945584;29;20391;-92
2024/01/25 01:16:52;;;;;;;17.75;5.85;;;10.00;99.90;;;;;;4943846;29;20115;-92
2024/01/25 01:19:19;;;;;;;9.93;3.47;;;10.00;99.90;;;;;;4944351;29;20079;-91
2024/01/25 01:21:45;;;;;;;18.00;4.97;;;10.00;99.90;;;;;;4943501;29;20100;-92
2024/01/25 01:24:11;;;;;;;11.25;7.25;;;10.00;99.90;;;;;;4945026;29;20046;-91
2024/01/25 01:26:37;;;;;;;13.30;5.43;;;10.00;99.90;;;;;;4933838;29;20024;-91
2024/01/25 01:29:08;;;;;;;14.98;4.50;;;10.00;99.90;;;;;;4925197;29;20034;-92
2024/01/25 01:31:37;;;;;;;16.30;5.10;;;10.00;99.90;;;;;;4927256;29;20071;-90
2024/01/25 01:34:14;;;;;;;11.02;3.95;;;10.00;99.90;;;;;;4935933;29;20028;-91
2024/01/25 01:36:40;;;;;;;13.25;5.55;;;10.00;99.90;;;;;;4924670;29;20119;-91
2024/01/25 01:39:10;;;;;;;11.23;5.07;;;10.00;99.90;;;;;;4926607;29;20025;-92
2024/01/25 01:41:40;;;;;;;13.10;3.75;;;10.00;99.90;;;;;;4925555;29;20171;-93
2024/01/25 01:44:07;;;;;;;15.57;5.90;;;10.00;99.90;;;;;;4928104;29;20028;-92
2024/01/25 01:46:42;;;;;;;15.85;5.00;;;10.00;99.90;;;;;;4924773;29;20040;-92
2024/01/25 01:49:13;;;;;;;15.73;4.93;;;9.90;99.90;;;;;;4923418;29;20551;-93
2024/01/25 01:51:44;;;;;;;11.48;4.78;;;9.90;99.90;;;;;;4917733;29;20024;-92
2024/01/25 01:54:10;;;;;;;14.60;4.97;;;9.90;99.90;;;;;;4947555;29;20032;-91
2024/01/25 01:56:40;;;;;;;13.20;5.28;;;9.90;99.90;;;;;;4934256;29;20040;-91
2024/01/25 01:59:10;;;;;;;12.35;5.30;;;9.90;99.90;;;;;;4908844;29;20099;-91
2024/01/25 02:01:39;;;;;;;13.38;4.53;;;10.00;99.90;;;;;;4939473;29;20072;-93
2024/01/25 02:04:06;;;;;;;19.13;6.30;;;9.90;99.90;;;;;;4925608;29;20027;-91
2024/01/25 02:06:32;;;;;;;12.32;3.95;;;9.90;99.90;;;;;;4925744;29;20076;-93
2024/01/25 02:09:01;;;;;;;10.93;3.05;;;9.90;99.90;;;;;;4924379;29;20487;-93
2024/01/25 02:11:27;;;;;;;18.33;4.82;;;9.90;99.90;;;;;;4924520;29;20032;-90
2024/01/25 02:13:54;;;;;;;15.48;4.70;;;10.00;99.90;;;;;;4923545;29;20104;-92
2024/01/25 02:16:21;;;;;;;15.20;5.63;;;10.00;99.60;;;;;;4924782;29;20040;-92
2024/01/25 02:18:48;;;;;;;11.18;4.50;;;10.00;99.90;;;;;;4929218;29;20055;-90
2024/01/25 02:21:14;;;;;;;9.82;3.50;;;9.90;99.80;;;;;;4934617;29;20152;-90
2024/01/25 02:23:43;;;;;;;14.63;4.10;;;9.90;99.10;;;;;;4932489;29;20381;-90
2024/01/25 02:26:09;;;;;;;14.05;5.80;;;9.90;99.40;;;;;;4924696;29;20060;-92
2024/01/25 02:28:35;;;;;;;12.90;4.32;;;9.90;99.30;;;;;;4932965;29;20040;-91
2024/01/25 02:31:04;;;;;;;13.38;4.47;;;9.90;98.70;;;;;;4923320;29;20499;-92
2024/01/25 02:33:30;;;;;;;9.93;6.05;;;9.90;98.30;;;;;;4924205;29;20039;-92
2024/01/25 02:35:59;;;;;;;16.48;5.55;;;9.90;96.60;;;;;;4923932;29;20024;-92
2024/01/25 02:38:25;;;;;;;15.63;3.47;;;9.90;95.10;;;;;;4922794;29;20036;-91
2024/01/25 02:40:53;;;;;;;20.45;5.10;;;9.90;94.20;;;;;;4928820;29;20032;-91
2024/01/25 02:43:20;;;;;;;17.23;3.10;;;9.90;94.60;;;;;;4927673;29;20472;-91
2024/01/25 02:45:48;;;;;;;13.68;5.50;;;9.80;94.60;;;;;;4929598;29;20032;-92
2024/01/25 02:48:15;;;;;;;10.52;5.68;;;9.90;95.40;;;;;;4923516;29;20475;-91
2024/01/25 02:50:41;;;;;;;10.63;5.10;;;9.80;95.60;;;;;;4923086;29;20162;-92
2024/01/25 02:53:07;;;;;;;17.02;4.80;;;9.80;96.20;;;;;;4922170;29;20051;-91
2024/01/25 02:55:33;;;;;;;11.52;5.22;;;9.80;96.30;;;;;;4940846;29;20067;-92
2024/01/25 02:58:01;;;;;;;17.38;4.75;;;9.80;96.50;;;;;;4943173;29;20038;-92
2024/01/25 03:00:30;;;;;;;8.57;3.67;;;9.80;95.90;;;;;;4927261;29;20036;-92
2024/01/25 03:02:57;;;;;;;12.77;4.72;;;9.80;94.90;;;;;;4927240;29;20054;-91
2024/01/25 03:05:23;;;;;;;11.10;4.13;;;9.80;95.40;;;;;;4923308;29;20048;-92
2024/01/25 03:07:52;;;;;;;11.05;5.15;;;9.70;96.10;;;;;;4956368;29;20031;-91
2024/01/25 03:10:18;;;;;;;14.98;4.10;;;9.80;95.40;;;;;;4956736;28;20023;-94
2024/01/25 03:12:46;;;;;;;17.75;4.70;;;9.70;95.60;;;;;;4937675;29;20045;-90
2024/01/25 03:15:15;;;;;;;13.63;3.88;;;9.70;94.30;;;;;;4938006;29;20016;-92
2024/01/25 03:17:44;;;;;;;15.55;3.88;;;9.80;94.90;;;;;;4932782;29;20420;-94
2024/01/25 03:20:10;;;;;;;16.75;5.15;;;9.70;94.60;;;;;;4923355;29;20502;-91
2024/01/25 03:22:39;;;;;;;12.38;5.57;;;9.60;94.40;;;;;;4922297;29;20027;-91
2024/01/25 03:25:06;;;;;;;14.68;5.85;;;9.70;94.40;;;;;;4937938;29;20032;-91
2024/01/25 03:27:32;;;;;;;14.20;5.38;;;9.60;94.40;;;;;;4939313;28;20040;-91
2024/01/25 03:30:05;;;;;;;14.65;5.18;;;9.60;93.90;;;;;;4922949;29;20064;-92
2024/01/25 03:32:31;;;;;;;15.25;4.13;;;9.60;94.00;;;;;;4934314;29;20031;-92
2024/01/25 03:36:35;;;;;;;15.02;2.25;;;9.60;94.00;;;;;;5093640;28;20395;-93
2024/01/25 03:39:02;;;;;;;14.23;3.30;;;9.60;94.30;;;;;;5066081;28;20510;-93
2024/01/25 03:41:29;;;;;;;16.33;3.88;;;9.60;93.50;;;;;;5066060;28;20025;-93
2024/01/25 03:43:55;;;;;;;9.02;2.17;;;9.60;94.00;;;;;;5057632;28;20028;-93
2024/01/25 03:46:20;;;;;;;12.48;2.45;;;9.50;93.70;;;;;;5072549;28;20025;-94
2024/01/25 03:48:46;;;;;;;12.82;3.42;;;9.60;94.30;;;;;;5070601;28;20045;-92
2024/01/25 03:51:12;;;;;;;15.18;2.88;;;9.60;94.60;;;;;;5070750;28;20033;-94
2024/01/25 03:53:37;;;;;;;14.77;2.85;;;9.60;94.60;;;;;;5055951;28;20025;-93
2024/01/25 03:56:03;;;;;;;16.70;3.40;;;9.50;94.80;;;;;;5062256;28;20027;-93
2024/01/25 03:58:29;;;;;;;13.63;3.15;;;9.50;95.10;;;;;;5065075;28;20031;-92
2024/01/25 04:00:55;;;;;;;13.88;3.50;;;9.50;95.30;;;;;;5072991;28;20421;-93
2024/01/25 04:03:21;;;;;;;16.00;2.97;;;9.40;95.10;;;;;;5074374;28;20020;-92
2024/01/25 04:05:46;;;;;;;17.08;4.22;;;9.40;95.00;;;;;;5062223;28;20156;-93
2024/01/25 04:08:12;;;;;;;14.07;2.30;;;9.50;95.30;;;;;;5061450;28;20056;-93
2024/01/25 04:10:38;;;;;;;18.50;3.63;;;9.50;95.40;;;;;;5073828;28;20033;-92
2024/01/25 04:13:04;;;;;;;16.52;3.83;;;9.40;95.50;;;;;;5073516;28;20043;-93
2024/01/25 04:15:30;;;;;;;18.60;4.10;;;9.40;95.90;;;;;;5065286;28;20039;-92
2024/01/25 04:17:56;;;;;;;10.50;2.78;;;9.30;96.10;;;;;;5073910;28;20016;-93
2024/01/25 04:20:22;;;;;;;15.32;2.55;;;9.30;95.90;;;;;;5073153;28;20028;-93
2024/01/25 04:22:48;;;;;;;16.65;2.78;;;9.30;96.20;;;;;;5068925;28;20021;-93
2024/01/25 04:25:14;;;;;;;12.40;3.45;;;9.30;96.60;;;;;;5068066;28;20036;-92
2024/01/25 04:27:40;;;;;;;15.13;2.65;;;9.30;96.80;;;;;;5057855;28;20025;-94
2024/01/25 04:30:07;;;;;;;17.55;3.25;;;9.30;96.90;;;;;;5056941;28;20057;-93
2024/01/25 04:32:33;;;;;;;20.95;4.43;;;9.30;96.90;;;;;;5065161;28;20033;-93
2024/01/25 04:34:59;;;;;;;15.13;3.08;;;9.20;97.10;;;;;;5065036;28;20086;-93
2024/01/25 04:37:25;;;;;;;8.23;2.50;;;9.30;97.10;;;;;;5074414;28;20096;-92
2024/01/25 04:39:50;;;;;;;10.30;3.15;;;9.30;97.20;;;;;;5055773;28;20021;-91
2024/01/25 04:42:16;;;;;;;11.60;3.47;;;9.30;97.30;;;;;;5062197;28;20021;-94
2024/01/25 04:44:42;;;;;;;9.10;2.90;;;9.30;97.50;;;;;;5069446;28;20029;-93
2024/01/25 04:47:09;;;;;;;15.18;2.85;;;9.30;97.70;;;;;;5061128;28;20022;-92
2024/01/25 04:49:34;;;;;;;20.30;3.67;;;9.30;97.80;;;;;;5049378;28;20626;-91
2024/01/25 04:52:00;;;;;;;20.77;3.47;;;9.20;97.90;;;;;;5055492;28;20056;-93
2024/01/25 04:54:26;;;;;;;21.85;3.95;;;9.20;97.80;;;;;;5060506;28;20079;-93
2024/01/25 04:56:52;;;;;;;19.55;3.50;;;9.10;98.10;;;;;;5054754;28;20438;-92
2024/01/25 04:59:20;;;;;;;14.50;2.45;;;9.20;98.70;;;;;;5056230;28;20021;-94
2024/01/25 05:01:45;;;;;;;17.13;2.45;;;9.20;97.40;;;;;;5048268;28;20036;-93
2024/01/25 05:04:11;;;;;;;18.73;3.17;;;9.20;97.70;;;;;;5041952;28;20018;-94
2024/01/25 05:06:37;;;;;;;8.52;2.47;;;9.10;97.90;;;;;;5041861;28;20443;-92
2024/01/25 05:09:03;;;;;;;17.15;2.97;;;9.10;98.10;;;;;;5032037;28;20029;-93
2024/01/25 05:11:29;;;;;;;16.08;3.80;;;9.00;98.20;;;;;;5043311;28;20021;-93
2024/01/25 05:13:54;;;;;;;18.10;3.72;;;9.00;99.80;;;;;;5044012;28;20029;-92
2024/01/25 05:16:21;;;;;;;13.57;3.47;;;8.90;99.50;;;;;;5044306;28;20055;-94
2024/01/25 05:18:46;;;;;;;15.70;4.25;;;8.80;99.70;;;;;;5047662;28;20021;-92
2024/01/25 05:21:12;;;;;;;14.18;3.08;;;8.60;99.90;;;;;;5040572;28;20021;-93
2024/01/25 05:23:38;;;;;;;16.13;3.05;;;8.70;99.90;;;;;;5051221;28;20029;-93
2024/01/25 05:26:05;;;;;;;13.73;2.22;;;8.60;99.90;;;;;;5051077;28;20114;-94
2024/01/25 05:28:31;;;;;;;17.35;3.13;;;8.50;99.90;;;;;;5051243;28;20051;-93
2024/01/25 05:30:57;;;;;;;14.10;4.10;;;8.40;99.90;;;;;;5058529;28;20021;-92
2024/01/25 05:33:23;;;;;;;11.55;2.47;;;8.40;99.90;;;;;;5057625;28;20170;-93
2024/01/25 05:35:49;;;;;;;13.40;3.78;;;8.40;99.90;;;;;;5042670;28;20056;-93
2024/01/25 05:38:15;;;;;;;12.75;3.60;;;8.30;99.90;;;;;;5039986;28;20029;-94
2024/01/25 05:40:40;;;;;;;15.25;3.70;;;8.30;99.90;;;;;;5053813;28;20041;-92
2024/01/25 05:43:06;;;;;;;14.18;3.42;;;8.30;99.90;;;;;;5051746;28;20480;-91
2024/01/25 05:45:34;;;;;;;10.52;3.72;;;8.20;99.90;;;;;;5044411;28;20030;-92
2024/01/25 05:48:00;;;;;;;16.70;4.15;;;8.20;99.90;;;;;;5051558;28;20005;-93
2024/01/25 05:50:26;;;;;;;17.30;3.35;;;8.20;99.90;;;;;;5044074;28;20505;-92
2024/01/25 05:52:52;;;;;;;14.13;2.00;;;8.10;99.90;;;;;;5046949;28;20026;-92
2024/01/25 05:55:18;;;;;;;10.63;3.15;;;8.10;99.90;;;;;;5050401;28;20025;-93
2024/01/25 05:57:44;;;;;;;14.18;3.10;;;8.10;99.90;;;;;;5041506;28;20586;-92
2024/01/25 06:00:12;;;;;;;15.20;3.25;;;8.00;99.90;;;;;;5045621;28;20097;-93
2024/01/25 06:02:39;;;;;;;14.07;2.33;;;8.00;99.90;;;;;;5049541;28;20021;-93
2024/01/25 06:05:04;;;;;;;21.50;5.07;;;7.90;99.90;;;;;;5051973;28;20025;-93
2024/01/25 06:07:30;;;;;;;15.35;2.70;;;7.90;99.90;;;;;;5060304;28;20063;-93
2024/01/25 06:09:56;;;;;;;15.43;3.72;;;7.90;99.90;;;;;;5054531;28;20029;-93
2024/01/25 06:12:21;;;;;;;18.02;3.40;;;7.90;99.90;;;;;;5054022;28;20045;-94
2024/01/25 06:14:47;;;;;;;15.45;3.40;;;7.70;99.90;;;;;;5053688;28;20021;-93
2024/01/25 06:17:13;;;;;;;14.00;4.38;;;7.70;99.90;;;;;;5046464;28;20028;-92
2024/01/25 06:19:39;;;;;;;17.45;3.92;;;7.70;99.90;;;;;;5051021;28;20029;-91
2024/01/25 06:22:04;;;;;;;18.52;10.85;;;7.60;99.90;;;;;;5055568;28;20036;-93
2024/01/25 06:24:30;;;;;;;14.60;4.10;;;7.60;99.90;;;;;;5057904;28;20108;-92
2024/01/25 06:26:56;;;;;;;11.73;4.28;;;7.60;99.90;;;;;;5044053;28;20021;-93
2024/01/25 06:29:22;;;;;;;18.25;4.28;;;7.50;99.90;;;;;;5040457;28;20048;-94
2024/01/25 06:32:00;;;;;;;21.60;4.32;;;7.50;99.90;;;;;;5021182;28;20032;-92
2024/01/25 06:34:26;;;;;;;14.20;3.55;;;7.40;99.90;;;;;;5020553;28;20037;-92
2024/01/25 06:36:57;;;;;;;14.52;4.70;;;7.40;99.90;;;;;;5023661;28;20036;-94
2024/01/25 06:39:22;;;;;;;17.75;4.93;;;7.40;99.90;;;;;;5022630;28;20021;-93
2024/01/25 06:41:48;;;;;;;15.18;4.38;;;7.40;99.90;;;;;;5020746;28;20113;-93
2024/01/25 06:44:14;;;;;;;14.85;3.17;;;7.30;99.90;;;;;;5019606;28;20033;-95
2024/01/25 06:46:43;;;;;;;11.52;3.53;;;7.30;99.90;;;;;;5021305;28;20696;-92
2024/01/25 06:49:09;;;;;;;15.45;4.85;;;7.30;99.90;;;;;;5018030;28;20025;-93
2024/01/25 06:51:37;;;;;;;15.23;4.38;;;7.20;99.90;;;;;;5021026;28;20690;-93
2024/01/25 06:54:03;;;;;;;15.10;4.43;;;7.20;99.90;;;;;;5023249;28;20030;-93
2024/01/25 06:56:29;;;;;;;16.08;5.70;;;7.20;99.90;;;;;;5022367;28;20025;-94
2024/01/25 06:58:54;;;;;;;19.42;3.75;;;7.20;99.90;;;;;;5014534;28;20049;-93
2024/01/25 07:01:24;;;;;;;12.68;3.38;;;7.10;99.90;;;;;;5020080;28;20025;-92
2024/01/25 07:03:53;;;;;;;17.52;4.85;;;7.10;99.90;;;;;;5023164;28;20022;-95
2024/01/25 07:06:19;;;;;;;15.85;4.38;;;7.00;99.90;;;;;;5020289;28;20503;-93
2024/01/25 07:08:46;;;;;;;16.85;4.47;;;7.10;99.90;;;;;;5018431;28;20223;-92
2024/01/25 07:11:11;;;;;;;15.10;3.90;;;7.10;99.90;;;;;;5022150;28;20029;-94
2024/01/25 07:13:37;;;;;;;14.13;3.42;;;7.20;99.90;;;;;;5021487;28;20511;-93
2024/01/25 07:16:03;;;;;;;20.20;4.50;;;7.20;99.90;;;;;;5018274;28;20155;-94
2024/01/25 07:18:29;;;;;;;15.93;4.20;;;7.20;99.90;;;;;;5019269;28;20040;-93
2024/01/25 07:20:58;;;;;;;16.27;3.55;;;7.30;99.90;;;;;;5020292;28;20029;-92
2024/01/25 07:23:24;;;;;;;14.23;3.28;;;7.30;99.90;;;;;;5015424;28;20033;-92
2024/01/25 07:25:50;;;;;;;20.75;5.20;;;7.40;99.90;;;;;;5019942;28;20025;-91
2024/01/25 07:28:19;;;;;;;18.77;4.50;;;7.40;99.90;;;;;;5020698;28;20063;-93
2024/01/25 07:30:47;;;;;;;11.55;4.65;;;7.50;99.90;;;;;;5018716;28;20048;-93
2024/01/25 07:33:12;;;;;;;;;;;7.40;99.90;;;;;;5023005;28;20030;-93
2024/01/25 07:35:45;;;;;;;9.15;3.97;;;7.40;99.90;;;;;;5053812;28;19993;-93
2024/01/25 07:38:11;;;;;;;14.65;4.60;;;7.50;99.90;;;;;;5018220;28;20026;-92
2024/01/25 07:40:37;;;;;;;13.55;4.07;;;7.40;99.90;;;;;;5016491;28;20507;-93
2024/01/25 07:43:02;;;;;;;14.10;5.07;;;7.40;99.90;;;;;;5020664;28;20041;-92
2024/01/25 07:45:28;;;;;;;8.27;3.65;;;7.40;99.90;;;;;;5020328;28;20033;-92
2024/01/25 07:47:54;;;;;;;10.35;3.30;;;7.40;99.90;;;;;;5015617;28;20080;-94
2024/01/25 07:50:20;;;;;;;10.18;4.05;;;7.40;99.90;;;;;;5016147;28;20125;-94
2024/01/25 07:52:46;;;;;;;12.00;3.67;;;7.40;99.90;;;;;;5020119;28;20022;-93
2024/01/25 07:55:12;;;;;;;12.95;3.47;;;7.40;99.90;;;;;;5015270;28;20088;-93
2024/01/25 07:57:38;;;;;;;9.95;4.80;;;7.40;99.90;;;;;;5017918;28;20034;-93
2024/01/25 08:00:04;;;;;;;11.98;3.45;;;7.40;99.90;;;;;;5014607;28;20468;-95
2024/01/25 08:02:36;;;;;;;12.00;3.90;;;7.50;99.90;;;;;;5017600;28;20126;-91
2024/01/25 08:05:02;;;;;;;14.55;5.43;;;7.40;99.90;;;;;;5016623;28;20034;-93
2024/01/25 08:07:29;;;;;;;10.95;3.97;;;7.50;99.90;;;;;;5021175;28;20029;-93
2024/01/25 08:09:57;;;;;;;7.10;3.97;;;7.50;99.90;;;;;;5022393;28;20052;-93
2024/01/25 08:12:26;;;;;;;16.85;3.97;;;7.50;99.90;;;;;;5028263;28;20037;-93
2024/01/25 08:14:52;;;;;;;15.07;5.05;;;7.50;99.90;;;;;;5024335;28;20113;-94
2024/01/25 08:17:18;;;;;;;11.88;4.57;;;7.50;99.90;;;;;;5022620;28;20045;-94
2024/01/25 08:19:46;;;;;;;12.63;3.45;;;7.50;99.90;;;;;;5015072;28;20030;-94
2024/01/25 08:22:12;;;;;;;12.38;3.95;;;7.50;99.90;;;;;;5019741;28;20034;-94
2024/01/25 08:24:39;;;;;;;9.32;5.13;;;7.50;99.90;;;;;;5023348;28;20033;-93
2024/01/25 08:27:07;;;;;;;12.63;3.65;;;7.50;99.90;;;;;;5020279;28;20036;-92
2024/01/25 08:29:33;;;;;;;12.85;3.90;;;7.60;99.90;;;;;;5013247;28;20044;-92
2024/01/25 08:31:58;;;;;;;8.93;4.28;;;7.60;99.90;;;;;;5022510;28;20025;-93
2024/01/25 08:34:24;;;;;;;9.98;2.75;;;7.70;99.90;;;;;;5021927;28;20084;-92
2024/01/25 08:36:50;;;;;;;8.10;2.85;;;7.70;99.90;;;;;;5018455;28;20040;-94
2024/01/25 08:39:16;;;;;;;11.73;3.83;;;7.70;99.90;;;;;;5019029;28;21265;-94
2024/01/25 08:41:43;;;;;;;10.68;3.22;;;7.70;99.90;;;;;;5030544;28;20558;-96
2024/01/25 08:44:09;;;;;;;10.70;3.45;;;7.80;99.90;;;;;;5037227;28;20009;-96
2024/01/25 08:46:35;;;;;;;12.82;4.53;;;7.90;99.90;;;;;;5038579;28;20081;-96
2024/01/25 08:49:01;;;;;;;8.95;3.33;;;7.90;99.90;;;;;;5050963;28;20026;-94
2024/01/25 08:51:27;;;;;;;11.23;4.72;;;7.90;99.90;;;;;;5040303;28;20037;-96
2024/01/25 08:53:54;;;;;;;10.05;3.13;;;8.00;99.90;;;;;;5053698;23;20056;-93
2024/01/25 08:56:20;;;;;;;12.80;3.03;;;8.10;99.90;;;;;;5024207;28;20034;-93
2024/01/25 08:58:47;;;;;;;10.73;3.67;;;8.20;99.90;;;;;;5020262;28;20029;-92
2024/01/25 09:01:13;;;;;;;9.32;2.70;;;8.30;99.90;;;;;;5016312;28;20120;-93
2024/01/25 09:03:39;;;;;;;10.50;2.70;;;8.30;99.90;;;;;;5024444;28;20022;-95
2024/01/25 09:06:06;;;;;;;8.13;3.42;;;8.40;99.90;;;;;;5022307;28;20025;-93
2024/01/25 09:08:32;;;;;;;12.07;2.28;;;8.40;99.90;;;;;;5018012;28;20510;-94
2024/01/25 09:11:01;;;;;;;14.77;3.55;;;8.50;99.90;;;;;;5019941;28;20473;-95
2024/01/25 09:13:27;;;;;;;9.48;2.92;;;8.60;99.90;;;;;;5023721;28;20029;-94
2024/01/25 09:15:53;;;;;;;17.08;3.75;;;8.70;99.90;;;;;;5022177;28;20109;-91
2024/01/25 09:18:19;;;;;;;10.52;2.72;;;8.70;99.90;;;;;;5019332;28;20128;-95
2024/01/25 09:20:47;;;;;;;11.50;2.63;;;8.70;99.90;;;;;;5021077;28;20053;-93
2024/01/25 09:23:16;;;;;;;13.55;3.72;;;8.80;99.90;;;;;;5021751;28;20540;-92
2024/01/25 09:25:42;;;;;;;12.10;3.40;;;8.80;99.90;;;;;;5024646;28;20480;-93
2024/01/25 09:28:08;;;;;;;19.27;4.70;;;8.90;99.90;;;;;;5020944;28;20021;-95
2024/01/25 09:30:34;;;;;;;9.82;3.63;;;8.90;99.90;;;;;;5020166;28;20025;-91
2024/01/25 09:33:00;;;;;;;15.80;3.63;;;9.00;99.90;;;;;;5020582;28;20033;-93
2024/01/25 09:35:25;;;;;;;10.57;2.80;;;9.10;99.90;;;;;;5028179;28;20528;-95
2024/01/25 09:37:52;;;;;;;14.05;2.78;;;9.20;99.90;;;;;;5022946;28;20133;-91
2024/01/25 09:40:20;;;;;;;13.55;2.97;;;9.20;99.90;;;;;;5019577;28;20037;-90
2024/01/25 09:42:48;;;;;;;10.23;2.47;;;9.20;99.90;;;;;;5018601;28;20034;-92
2024/01/25 09:45:18;;;;;;;14.57;5.88;;;9.30;99.90;;;;;;5024374;28;20155;-91
2024/01/25 09:47:45;;;;;;;14.02;3.58;;;9.30;99.90;;;;;;5025721;28;20025;-91
2024/01/25 09:50:11;;;;;;;8.98;2.67;;;9.40;99.90;;;;;;5020978;28;20057;-93
2024/01/25 09:52:38;;;;;;;17.17;3.90;;;9.60;99.90;;;;;;5022353;28;20037;-92
2024/01/25 09:55:07;;;;;;;14.60;4.70;;;9.60;99.90;;;;;;5022944;28;20034;-91
2024/01/25 09:57:39;;;;;;;20.33;4.68;;;9.60;99.90;;;;;;5023073;28;20052;-94
2024/01/25 10:00:09;;;;;;;10.10;3.40;;;9.80;99.90;;;;;;5023327;28;20053;-91
2024/01/25 10:02:35;;;;;;;12.20;2.90;;;9.90;99.90;;;;;;5020836;28;20073;-92
2024/01/25 10:05:01;;;;;;;13.43;3.72;;;10.10;99.90;;;;;;5020968;28;20026;-91
2024/01/25 10:08:00;;;;;;;12.88;3.70;;;10.20;99.90;;;;;;5023520;28;20125;-91
2024/01/25 10:10:26;;;;;;;9.27;3.15;;;10.30;99.90;;;;;;5010241;28;20041;-91
2024/01/25 10:12:55;;;;;;;11.15;3.55;;;10.50;99.90;;;;;;5021848;28;20091;-92
2024/01/25 10:15:21;;;;;;;17.00;4.03;;;10.50;99.90;;;;;;5022185;28;20388;-92
2024/01/25 10:17:46;;;;;;;13.23;3.80;;;10.60;99.80;;;;;;5018950;28;20032;-89
2024/01/25 10:20:14;;;;;;;11.80;2.65;;;10.50;99.90;;;;;;5022936;28;20030;-91
2024/01/25 10:22:40;;;;;;;8.30;2.80;;;10.40;99.90;;;;;;5033461;28;20080;-94
2024/01/25 10:25:15;;;;;;;19.80;4.05;;;10.40;99.90;;;;;;5037579;28;20033;-91
2024/01/25 10:27:40;;;;;;;12.88;3.40;;;10.50;99.90;;;;;;5031023;28;20044;-92
2024/01/25 10:30:09;;;;;;;17.35;3.30;;;10.50;99.90;;;;;;5030492;28;20033;-91
2024/01/25 10:32:35;;;;;;;9.93;3.55;;;10.40;99.40;;;;;;5025463;28;20037;-91
2024/01/25 10:35:02;;;;;;;8.60;3.03;;;10.50;99.80;;;;;;5030503;28;20045;-94
2024/01/25 10:37:29;;;;;;;14.60;2.65;;;10.90;99.50;;;;;;5035231;28;20022;-92
2024/01/25 10:39:55;;;;;;;8.95;2.85;;;10.90;96.40;;;;;;5036943;28;20052;-93
2024/01/25 10:42:21;;;;;;;12.13;3.55;;;10.70;96.40;;;;;;5033305;28;20029;-91
2024/01/25 10:44:47;;;;;;;13.90;3.67;;;10.60;97.80;;;;;;5032672;28;20034;-91
2024/01/25 10:47:13;;;;;;;13.18;2.47;;;10.80;96.30;;;;;;5026240;28;20029;-94
2024/01/25 10:49:41;;;;;;;10.50;3.50;;;10.90;95.30;;;;;;5025829;28;20123;-91
2024/01/25 10:52:10;;;;;;;11.82;3.83;;;10.60;95.60;;;;;;5024754;28;20112;-91
2024/01/25 10:54:36;;;;;;;7.80;2.78;;;10.60;97.10;;;;;;5026617;28;20033;-91
2024/01/25 10:57:04;;;;;;;9.48;3.13;;;10.80;97.30;;;;;;5017544;28;20037;-91
2024/01/25 10:59:30;;;;;;;15.82;3.20;;;11.10;95.50;;;;;;5019103;28;20029;-92
2024/01/25 11:01:56;;;;;;;10.13;1.92;;;11.30;92.70;;;;;;5032524;28;20032;-91
2024/01/25 11:04:23;;;;;;;12.20;3.88;;;11.40;91.50;;;;;;5024565;28;20030;-92
2024/01/25 11:06:49;;;;;;;13.65;3.35;;;11.50;91.60;;;;;;5025140;28;20030;-91
2024/01/25 11:09:19;;;;;;;10.38;2.50;;;11.70;91.40;;;;;;5023520;28;20460;-93
2024/01/25 11:11:49;;;;;;;12.32;2.70;;;11.90;90.40;;;;;;5027169;28;20022;-92
2024/01/25 11:14:16;;;;;;;9.60;2.97;;;12.10;87.40;;;;;;5024361;28;20033;-91
2024/01/25 11:16:47;;;;;;;13.73;3.08;;;11.90;89.40;;;;;;5018297;28;20492;-92
2024/01/25 11:19:28;;;;;;;13.05;3.45;;;11.60;90.10;;;;;;5024671;28;20134;-92
2024/01/25 11:22:05;;;;;;;20.20;7.60;;;11.30;91.20;;;;;;5028485;28;20025;-93
2024/01/25 11:24:40;;;;;;;11.00;2.95;;;10.90;93.70;;;;;;5022888;28;20034;-91
2024/01/25 11:27:13;;;;;;;15.57;3.10;;;10.90;94.20;;;;;;5023215;28;20036;-91
2024/01/25 11:29:40;;;;;;;12.52;3.63;;;10.90;94.20;;;;;;5020032;28;20079;-91
2024/01/25 11:32:06;;;;;;;13.13;4.38;;;10.80;94.70;;;;;;5017330;28;20030;-93
2024/01/25 11:34:32;;;;;;;16.33;9.65;;;10.70;94.90;;;;;;5023005;28;20050;-91
2024/01/25 11:36:58;;;;;;;11.73;4.18;;;10.60;96.20;;;;;;5020188;28;20152;-92
2024/01/25 11:39:24;;;;;;;13.43;2.97;;;10.60;95.10;;;;;;5023144;28;20195;-93
2024/01/25 11:41:51;;;;;;;12.27;3.63;;;10.60;94.40;;;;;;5024804;28;20032;-91
2024/01/25 11:44:18;;;;;;;9.93;3.22;;;10.70;94.80;;;;;;5019776;28;20033;-91
2024/01/25 11:46:44;;;;;;;16.15;4.05;;;10.80;94.00;;;;;;5004946;28;20041;-91
2024/01/25 11:49:09;;;;;;;11.35;3.05;;;10.70;93.50;;;;;;5019410;28;20041;-92
2024/01/25 11:51:42;;;;;;;13.98;2.20;;;10.90;93.20;;;;;;5016123;28;20111;-90
2024/01/25 11:54:08;;;;;;;14.68;2.88;;;11.10;93.00;;;;;;5018831;28;20042;-89
2024/01/25 11:56:39;;;;;;;13.52;3.58;;;11.20;89.90;;;;;;5018540;28;20022;-90
2024/01/25 11:59:05;;;;;;;13.60;2.40;;;11.20;90.20;;;;;;5027782;28;20047;-91
2024/01/25 12:01:31;;;;;;;10.98;3.72;;;11.30;91.90;;;;;;5023941;28;20021;-95
2024/01/25 12:03:59;;;;;;;15.50;5.18;;;11.50;89.80;;;;;;5019328;28;20111;-94
2024/01/25 12:06:24;;;;;;;14.65;2.67;;;11.40;90.70;;;;;;5032205;28;20033;-94
2024/01/25 12:08:51;;;;;;;11.00;3.40;;;11.40;90.70;;;;;;5020512;28;20539;-91
2024/01/25 12:11:18;;;;;;;12.98;2.88;;;11.40;90.90;;;;;;5028183;28;20045;-92
2024/01/25 12:13:45;;;;;;;15.38;5.90;;;11.20;92.00;;;;;;5033853;28;20030;-92
2024/01/25 12:16:12;;;;;;;10.80;4.22;;;11.10;89.70;;;;;;5021434;28;20040;-92
2024/01/25 12:18:41;;;;;;;14.75;3.70;;;11.10;89.10;;;;;;5020950;28;20619;-91
2024/01/25 12:21:08;;;;;;;16.55;4.05;;;11.10;89.50;;;;;;5023587;28;20507;-91
2024/01/25 12:23:37;;;;;;;11.10;4.82;;;11.10;89.00;;;;;;5024880;28;20029;-91
2024/01/25 12:26:08;;;;;;;12.90;3.40;;;10.90;87.60;;;;;;5022521;28;20030;-90
2024/01/25 12:28:36;;;;;;;11.35;3.88;;;10.90;89.10;;;;;;5023442;28;20068;-91
2024/01/25 12:31:05;;;;;;;;;;;10.90;88.00;;;;;;5025234;28;20033;-91
2024/01/25 12:33:33;;;;;;;10.77;3.15;;;10.70;88.20;;;;;;5026940;28;19916;-91
2024/01/25 12:36:00;;;;;;;17.90;13.73;;;10.80;88.80;;;;;;5025784;28;20049;-91
2024/01/25 12:38:26;;;;;;;13.85;7.60;;;11.40;86.20;;;;;;5021682;28;20041;-92
2024/01/25 12:40:52;;;;;;;15.13;3.20;;;11.60;83.60;;;;;;5023877;28;20018;-92
2024/01/25 12:43:21;;;;;;;18.00;3.83;;;11.90;83.20;;;;;;5023115;28;20377;-93
2024/01/25 12:45:47;;;;;;;10.98;2.85;;;12.50;81.20;;;;;;5025652;28;20068;-91